Weather observations for the past three days for
Marion Municipal Airport
Imperial (Metric)
Date Time (edt) Wind (mph) Vis. (mi.) Weather Sky Cond. Temperature (ºF) Relative Humidity Wind Chill (°F) Heat Index (°F) Pressure Precipitation (in)
Air Dwpt 6 hour altimeter (in) sea level (mb) 1 hr 3 hr 6 hr
Max. Min.
04 15:35 SW 29 G 38 7.00 Mostly Cloudy and Windy BKN100 73.6 45.3 37% 29.68 0.0
04 15:15 SW 25 G 37 10.00 Mostly Cloudy and Breezy BKN100 74.1 45.1 36% 29.68 0.0
04 14:55 SW 30 G 38 7.00 Mostly Cloudy and Windy BKN100 74.5 44.6 34% 29.68 0.0
04 14:35 SW 30 G 38 7.00 Partly Cloudy and Windy SCT100 74.7 45.1 35% 29.68 0.0
04 14:15 SW 28 G 37 10.00 Fair and Windy CLR 74.3 46.9 38% 29.67 0.0
04 13:55 SW 23 G 31 10.00 Fair and Breezy CLR 73.4 47.5 80.6 33.1 40% 29.68 0.0
04 13:35 SW 25 G 29 10.00 Fair and Breezy CLR 72.5 47.7 41% 29.68 0.0
04 13:15 SW 23 G 26 10.00 Fair and Breezy CLR 71.8 47.3 42% 29.69 0.0
04 12:55 SW 26 10.00 Fair and Windy CLR 71.8 47.7 42% 29.69 0.0
04 12:35 SW 22 G 30 10.00 Fair and Breezy CLR 70.9 48.2 45% 29.7 0.0
04 12:15 SW 20 G 26 10.00 Fair CLR 69.8 48.4 47% 29.71 0.0
04 11:55 SW 16 G 22 7.00 Fair CLR 68.2 48.7 50% 29.72 0.0
04 11:35 SW 17 G 21 10.00 Fair CLR 66.7 48 51% 29.72 0.0
04 11:15 SW 17 G 23 10.00 Fair CLR 65.1 48 54% 29.73 0.0
04 10:55 SW 15 10.00 Fair CLR 63.5 48.4 58% 29.73 0.0
04 10:35 SW 16 7.00 Fair CLR 61.9 47.8 60% 29.73 0.0
04 10:15 SW 16 10.00 Fair CLR 60.6 46.8 60% 29.74 0.0
04 09:55 SW 14 G 23 10.00 Fair CLR 59.4 46.2 62% 29.75 0.0
04 09:35 SW 14 10.00 Fair CLR 58.1 45.1 62% 29.75 0.0
04 09:15 SW 10 10.00 Fair CLR 55.9 44.1 65% 29.75 0.0
04 08:55 SW 9 10.00 Fair CLR 54.1 43.3 67% 29.74 0.0
04 08:35 SW 9 3.00 Fair with Haze CLR 52.5 42.4 69% 29.75 0.0
04 08:15 S 9 10.00 Fair CLR 51.1 41.2 69% 29.75 0.0
04 07:55 S 9 7.00 Fair CLR 49.8 40.5 80.6 33.1 70% 47 29.75 0.0
04 07:35 S 9 10.00 Fair CLR 48.7 39.7 71% 45 29.75 0.0
04 07:15 S 10 10.00 Fair CLR 47.8 39.4 73% 44 29.75 0.0
04 06:55 S 12 10.00 Fair CLR 47.5 39.2 73% 43 29.76 0.0
04 06:35 S 10 10.00 Fair CLR 47.8 39.2 72% 44 29.75 0.0
04 06:15 S 12 10.00 Fair CLR 48 39 71% 44 29.75 0.0
04 05:55 S 12 10.00 Fair CLR 48.2 38.8 70% 44 29.75 0.0
04 05:35 S 12 10.00 Fair CLR 48.4 38.8 70% 44 29.76 0.0
04 05:15 S 10 10.00 Fair CLR 48.6 38.7 69% 45 29.77 0.0
04 04:55 S 12 10.00 Fair CLR 48.6 38.8 69% 44 29.77 0.0
04 04:35 S 12 10.00 Fair CLR 48.2 38.8 70% 44 29.77 0.0
04 04:15 S 12 10.00 Fair CLR 48.2 38.8 70% 44 29.77 0.0
04 03:55 S 10 10.00 Fair CLR 48.4 38.8 70% 44 29.78 0.0
04 03:35 S 9 10.00 Fair CLR 48.7 38.8 69% 45 29.78 0.0
04 03:15 S 10 10.00 Fair CLR 48.7 39.2 70% 45 29.78 0.0
04 02:55 S 9 10.00 Fair CLR 48.9 39.2 69% 45 29.79 0.0
04 02:35 S 10 10.00 Fair CLR 48.9 39.2 69% 45 29.8 0.0
04 02:15 SW 10 10.00 Fair CLR 49.1 39.2 69% 45 29.81 0.0
04 01:55 SW 10 10.00 Fair CLR 49.3 39.2 80.6 33.1 68% 45 29.81 0.0
04 01:35 SW 10 7.00 Fair CLR 50 39.2 67% 46 29.81 0.0
04 01:15 SW 12 10.00 Fair CLR 50.4 39.2 66% 29.81 0.0
04 00:55 SW 12 10.00 Fair CLR 51.4 39 63% 29.82 0.0
04 00:35 S 14 G 20 10.00 Fair CLR 51.6 39.2 63% 29.82 0.0
04 00:15 S 14 G 17 10.00 Fair CLR 51.8 39.2 62% 29.82 0.0
03 23:55 S 13 10.00 Fair CLR 51.3 39.2 64% 29.83 0.0
03 23:35 S 10 10.00 Partly Cloudy SCT060 50.9 39.6 65% 29.84 0.0
03 23:15 S 9 10.00 Partly Cloudy SCT070 50.9 39.7 66% 29.84 0.0
03 22:55 S 9 10.00 Mostly Cloudy BKN070 52.2 39.6 62% 29.84 0.0
03 22:35 S 9 10.00 Overcast OVC070 52.9 39.7 61% 29.85 0.0
03 22:15 S 9 10.00 Overcast SCT070 OVC085 53.2 40.1 61% 29.85 0.0
03 21:55 S 8 10.00 Overcast OVC085 54 39.7 59% 29.85 0.0
03 21:35 S 9 10.00 Overcast OVC070 54.3 39.4 57% 29.85 0.0
03 21:15 S 9 10.00 Overcast BKN070 OVC080 53.4 41 63% 29.85 0.0
03 20:55 S 5 10.00 Overcast OVC070 51.3 44.2 77% 29.86 0.0
03 20:35 SE 5 7.00 Overcast OVC070 52 43.3 73% 29.86 0.0
03 20:15 SE 6 7.00 Overcast OVC070 52 43.2 72% 29.86 0.0
03 19:55 SE 7 10.00 Overcast OVC070 51.4 43.3 80.6 33.1 74% 29.87 0.0 0.09
03 19:35 SE 8 10.00 Overcast OVC070 51.6 43.3 73% 29.87 0.0
03 19:15 SE 8 7.00 Overcast OVC070 51.8 42.8 72% 29.87 0.0
03 18:55 SE 8 10.00 Mostly Cloudy BKN085 52.2 41.5 67% 29.88 0.0
03 18:35 SE 9 10.00 Mostly Cloudy BKN085 52 40.8 66% 29.88 0.0
03 18:15 SE 10 G 17 10.00 Fair CLR 52.2 41.5 67% 29.88 0.0
03 17:55 SE 13 10.00 Partly Cloudy SCT110 51.3 42.8 73% 29.89 0.0
03 17:35 SE 13 7.00 Partly Cloudy SCT110 50.7 42.8 74% 29.89 0.0
03 17:15 SE 13 7.00 Mostly Cloudy BKN100 50.7 43.5 76% 29.91 0.0
03 16:55 SE 10 10.00 Partly Cloudy SCT090 49.8 44.2 81% 46 29.92 0.0 0.09
03 16:35 SE 8 10.00 Mostly Cloudy SCT065 BKN075 BKN090 48 43.2 83% 45 29.94 0.0
03 16:15 SE 6 10.00 Overcast SCT038 BKN065 OVC090 46.9 42.1 83% 45 29.96 0.0
03 15:55 SE 5 3.00 Light Rain SCT035 OVC041 47.1 41.2 80% 46 29.98 0.0 0.09
03 15:35 SW 12 G 18 3.00 Rain SCT035 BKN041 OVC047 48.4 40.3 74% 44 30.01 0.0 0.04
03 15:15 W 26 G 35 7.00 Overcast and Windy SCT040 BKN050 OVC070 52 36.9 57% 30.01 0.0
03 14:55 W 29 G 38 7.00 Mostly Cloudy and Windy BKN055 BKN070 56.3 33.1 42% 29.99 0.0
03 14:35 SW 22 G 29 10.00 Partly Cloudy and Breezy SCT060 SCT065 57.9 32 38% 29.98 0.0
03 14:15 SW 23 G 28 10.00 Partly Cloudy and Breezy SCT060 58.6 31.6 36% 29.99 0.0
03 13:55 W 20 G 28 10.00 Partly Cloudy SCT060 59.2 30.7 80.6 33.1 34% 30 0.0
03 13:35 SW 23 G 30 10.00 Fair and Breezy CLR 60.1 30.2 32% 30.01 0.0
03 13:15 SW 20 G 24 10.00 Partly Cloudy SCT060 59.4 29.3 32% 30.01 0.0
03 12:50 SW 20 G 28 10.00 Fair CLR 59.5 28.6 31% 30.02 0.0
03 12:35 SW 22 G 26 10.00 Fair and Breezy CLR 58.8 28.4 31% 30.02 0.0
03 12:15 SW 15 G 26 10.00 Fair CLR 58.1 27.9 32% 30.02 0.0
03 11:55 W 20 G 25 7.00 Fair CLR 56.8 28.6 34% 30.04 0.0
03 11:35 SW 17 G 28 10.00 Fair CLR 56.1 29.3 36% 30.04 0.0
03 11:15 SW 18 7.00 Fair CLR 55.6 29.8 37% 30.05 0.0
03 10:55 SW 20 G 25 10.00 Fair CLR 54.3 30.2 40% 30.05 0.0
03 10:35 SW 20 G 24 10.00 Fair CLR 53.1 29.3 40% 30.05 0.0
03 10:15 SW 18 G 25 10.00 Fair CLR 52 29.1 42% 30.06 0.0
03 09:55 SW 20 G 24 7.00 Fair CLR 51.3 30 44% 30.06 0.0
03 09:35 SW 18 5.00 Fair with Haze CLR 49.5 30.4 48% 44 30.06 0.0
03 09:15 SW 14 G 18 10.00 Fair CLR 47.7 31.3 53% 42 30.06 0.0
03 08:55 SW 13 7.00 Fair CLR 45.9 30.9 56% 41 30.06 0.0
03 08:35 SW 12 10.00 Fair CLR 44.2 30.6 59% 39 30.06 0.0
03 08:15 SW 13 10.00 Fair CLR 43 30.4 61% 37 30.06 0.0
03 07:55 SW 9 10.00 Fair CLR 41.4 30 80.6 33.1 64% 36 30.06 0.0
03 07:35 SW 10 7.00 Fair CLR 39.4 29.5 68% 33 30.05 0.0
03 07:15 SW 9 10.00 Fair CLR 37.8 28.9 71% 32 30.05 0.0
03 06:55 SW 8 10.00 Fair CLR 36.9 28.4 72% 31 30.05 0.0
03 06:35 SW 8 10.00 Fair CLR 36.1 28 72% 30 30.04 0.0
03 06:15 SW 7 10.00 Fair CLR 35.6 28 74% 31 30.04 0.0
03 05:55 SW 7 10.00 Fair CLR 35.4 28 75% 30 30.04 0.0
03 05:35 SW 7 10.00 Fair CLR 35.6 28 74% 31 30.04 0.0
03 05:15 SW 7 10.00 Fair CLR 35.6 27.9 73% 31 30.04 0.0
03 04:55 SW 7 10.00 Fair CLR 36 27.9 72% 31 30.04 0.0
03 04:35 SW 7 10.00 Fair CLR 35.6 27.9 73% 31 30.05 0.0
03 04:15 SW 6 10.00 Fair CLR 35.4 27.7 73% 31 30.05 0.0
03 03:55 SW 5 10.00 Fair CLR 35.2 27.5 73% 32 30.05 0.0
03 03:35 S 5 10.00 Fair CLR 36 27.5 71% 33 30.04 0.0
03 03:15 SW 5 10.00 Fair CLR 35.6 27.7 73% 32 30.05 0.0
03 02:55 S 5 10.00 Fair CLR 35.6 27.5 72% 32 30.05 0.0
03 02:35 S 6 10.00 Fair CLR 35.6 28 74% 31 30.06 0.0
03 02:15 SW 6 10.00 Fair CLR 35.4 28 75% 31 30.06 0.0
03 01:55 SW 6 10.00 Fair CLR 35.8 28 80.6 33.1 74% 32 30.07 0.0
03 01:35 S 5 10.00 Fair CLR 35.6 28.6 76% 32 30.07 0.0
03 01:15 S 3 10.00 Fair CLR 35.8 29.1 77% 30.07 0.0
03 00:55 S 3 10.00 Fair CLR 35.8 29.8 79% 30.07 0.0
03 00:35 Calm 10.00 Fair CLR 35.4 30.4 82% 30.07 0.0
03 00:15 Calm 10.00 Fair CLR 35.1 30.6 84% 30.07 0.0
02 23:55 Calm 10.00 Fair CLR 36.3 30.7 80% 30.07 0.0
02 23:35 Calm 10.00 Fair CLR 37.4 30 75% 30.07 0.0
02 23:15 S 3 10.00 Fair CLR 37 29.8 75% 30.08 0.0
02 22:55 Calm 10.00 Fair CLR 37.8 29.5 72% 30.08 0.0
02 22:35 Calm 10.00 Fair CLR 39.4 28.4 65% 30.07 0.0
02 22:15 Calm 10.00 Fair CLR 40.6 27.1 59% 30.07 0.0
02 21:55 Calm 10.00 Fair CLR 42.8 25 49% 30.07 0.0
02 21:35 Calm 10.00 Fair CLR 43.9 23.5 45% 30.07 0.0
02 21:15 Calm 10.00 Fair CLR 46 20.3 36% 30.07 0.0
02 20:55 Calm 10.00 Fair CLR 47.1 19 33% 30.07 0.0
02 20:35 NW 5 10.00 Fair CLR 47.8 19.2 32% 46 30.07 0.0
02 19:55 NW 8 7.00 Fair CLR 49.8 17.6 80.6 33.1 28% 47 30.06 0.0
02 19:35 NW 10 G 18 10.00 Partly Cloudy SCT070 50.4 18.9 29% 30.05 0.0
02 19:15 NW 14 10.00 Fair CLR 50.4 19.4 29% 30.06 0.0
02 18:55 NW 5 10.00 Partly Cloudy SCT070 50.7 19.9 30% 30.06 0.0
02 18:35 NW 7 10.00 Partly Cloudy SCT070 50.5 18.7 28% 30.06 0.0
02 18:15 NW 6 10.00 Partly Cloudy SCT075 50.4 19 29% 30.06 0.0
02 17:55 NW 6 G 18 10.00 Mostly Cloudy SCT060 BKN075 51.4 19.8 29% 30.06 0.0
02 17:35 NW 9 10.00 Overcast BKN060 OVC070 50.2 21.2 32% 30.06 0.0
02 17:15 N 7 10.00 Mostly Cloudy BKN060 49.1 22.5 35% 47 30.06 0.0
02 16:55 N 7 10.00 Mostly Cloudy BKN060 BKN070 48.7 22.5 36% 46 30.06 0.0
02 16:35 N 9 10.00 Overcast OVC060 48 22.5 37% 44 30.07 0.0
02 16:15 NW 5 5.00 Overcast with Haze BKN060 OVC070 48.4 22.5 36% 47 30.07 0.0
02 15:55 N 9 10.00 Overcast SCT055 OVC065 49.5 22.1 34% 46 30.08 0.0
02 15:35 N 7 G 17 10.00 Mostly Cloudy SCT055 BKN065 48.4 22.3 36% 46 30.08 0.0
02 15:15 N 7 10.00 Mostly Cloudy SCT055 BKN065 48.7 23.4 37% 46 30.09 0.0
02 14:55 NW 7 10.00 Overcast SCT055 OVC065 47.5 22.8 38% 45 30.09 0.0
02 14:35 N 13 10.00 Mostly Cloudy BKN055 BKN065 47.8 22.8 37% 43 30.09 0.0
02 14:15 N 13 G 17 10.00 Mostly Cloudy SCT050 BKN060 47.7 24.4 40% 43 30.1 0.0
02 13:55 N 13 G 16 10.00 Mostly Cloudy SCT049 BKN060 46.6 23.7 80.6 33.1 41% 41 30.1 0.0
02 13:35 NW 8 10.00 Mostly Cloudy SCT049 BKN060 46 23.5 41% 42 30.11 0.0
02 13:15 N 7 10.00 Mostly Cloudy SCT045 BKN060 45.9 24.1 42% 43 30.11 0.0
02 12:55 NW 10 G 16 10.00 Mostly Cloudy SCT045 BKN060 46.2 24.8 43% 42 30.11 0.0
02 12:35 N 8 10.00 Overcast SCT044 OVC050 45 24.3 44% 41 30.12 0.0
02 12:15 NW 8 10.00 Overcast SCT046 OVC050 44.2 23.9 45% 40 30.12 0.0
02 11:55 N 6 10.00 Overcast BKN041 OVC050 44.4 25.2 47% 42 30.12 0.0
02 11:35 NW 8 10.00 Mostly Cloudy BKN039 45 27.3 50% 41 30.12 0.0
02 11:15 N 6 G 9 10.00 Fair CLR 43.9 25.7 49% 41 30.12 0.0
02 10:55 N 7 10.00 Fair CLR 43.7 25.2 48% 40 30.12 0.0
02 10:35 N 9 10.00 Fair CLR 43.2 25.5 50% 38 30.12 0.0
02 10:15 NE 9 10.00 Fair CLR 42.6 24.8 49% 38 30.11 0.0
02 09:55 N 7 10.00 Fair CLR 41.5 25 52% 38 30.11 0.0
02 09:35 N 7 10.00 Fair CLR 40.6 25.9 56% 37 30.11 0.0
02 09:15 N 8 7.00 Fair CLR 39.6 27.5 62% 35 30.11 0.0
02 08:55 N 6 10.00 Fair CLR 38.3 27.7 66% 34 30.11 0.0
02 08:35 N 8 10.00 Fair CLR 37.8 27.3 66% 32 30.1 0.0
02 08:15 N 5 7.00 Fair CLR 36.5 27.3 69% 33 30.1 0.0
02 07:55 N 3 10.00 Fair CLR 35.2 27.5 80.6 33.1 73% 30.09 0.0
02 07:35 Calm 10.00 Fair CLR 33.8 26.4 74% 30.09 0.0
02 07:15 Calm 10.00 Fair CLR 33.6 25 71% 30.09 0.0
02 06:55 N 3 10.00 Fair CLR 33.4 24.6 70% 30.09 0.0
02 06:35 Calm 10.00 Fair CLR 33.6 23.7 67% 30.09 0.0
02 06:15 Calm 10.00 Fair CLR 33.3 23.9 69% 30.08 0.0
02 05:55 Calm 10.00 Fair CLR 33.4 24.1 69% 30.08 0.0
02 05:35 Calm 10.00 Fair CLR 34.2 24.6 68% 30.08 0.0
02 05:15 Calm 10.00 Fair CLR 35.1 24.4 65% 30.08 0.0
02 04:55 Calm 10.00 Fair CLR 35.6 23.4 61% 30.08 0.0
02 04:35 N 3 10.00 Fair CLR 36.3 23 59% 30.08 0.0
02 04:15 N 6 10.00 Partly Cloudy SCT075 37.6 21.9 53% 34 30.07 0.0
02 03:55 N 7 10.00 Overcast OVC075 38.5 25.5 60% 34 30.08 0.0
02 03:35 N 6 10.00 Overcast OVC075 39.2 28 64% 36 30.08 0.0
02 03:15 N 9 10.00 Overcast OVC075 39.6 28.6 65% 34 30.07 0.0
02 02:55 N 5 10.00 Overcast OVC075 39.7 29.8 68% 37 30.08 0.0
02 02:35 Calm 10.00 Overcast SCT055 SCT065 OVC075 39.7 30 68% 30.08 0.0
02 02:15 Calm 10.00 Overcast SCT055 OVC075 39.9 29.1 65% 30.08 0.0
02 01:55 NW 3 10.00 Overcast OVC075 40.3 28.2 80.6 36 62% 30.08 0.0
02 01:35 N 3 10.00 Overcast SCT060 OVC075 40.3 28.2 62% 30.08 0.0
02 01:15 N 5 10.00 Overcast BKN060 OVC075 40.3 27.9 61% 38 30.08 0.0
02 00:55 N 6 10.00 Mostly Cloudy SCT060 BKN075 40.5 28 61% 37 30.08 0.0
02 00:35 N 7 10.00 Mostly Cloudy BKN075 40.8 28.6 62% 37 30.08 0.0
02 00:15 N 5 10.00 Mostly Cloudy BKN075 40.6 30.2 66% 38 30.09 0.0
01 23:55 N 3 10.00 Overcast SCT060 OVC075 41.7 28.6 60% 30.09 0.0
01 23:35 Calm 10.00 Overcast SCT060 OVC075 41.9 28 58% 30.09 0.0
01 23:15 N 5 10.00 Mostly Cloudy BKN075 41 28.2 60% 38 30.09 0.0
01 22:55 N 5 10.00 Partly Cloudy SCT075 40.5 30.2 67% 38 30.08 0.0
01 22:35 N 5 10.00 Partly Cloudy SCT075 41.9 29.7 62% 40 30.08 0.0
01 22:15 N 6 10.00 Mostly Cloudy SCT075 BKN080 41.5 30.7 66% 38 30.07 0.0
01 21:55 N 5 10.00 Mostly Cloudy BKN075 42.6 29.5 60% 40 30.06 0.0
01 21:15 N 5 10.00 Fair CLR 43.9 29.3 57% 42 30.04 0.0
01 20:55 N 9 10.00 Fair CLR 45.1 28.4 52% 41 30.02 0.0
01 20:35 N 7 10.00 Fair CLR 46 28 50% 43 30.02 0.0
01 20:15 N 7 10.00 Fair CLR 46.9 27.9 48% 44 30.02 0.0
01 19:55 N 9 G 16 10.00 Partly Cloudy SCT050 47.8 27.3 80.6 36 45% 44 30.02 0.0
01 19:35 N 12 G 18 10.00 Partly Cloudy SCT050 SCT095 48.2 27.1 44% 44 30.02 0.0
01 19:15 NW 12 G 16 10.00 Partly Cloudy SCT050 49.1 28.4 45% 45 30.01 0.0
01 18:55 NW 10 G 17 10.00 Partly Cloudy SCT043 SCT050 SCT100 49.6 30.2 47% 46 30.01 0.0
01 18:35 NW 14 10.00 Mostly Cloudy SCT043 SCT050 BKN090 48.7 31.6 52% 44 30.01 0.0
01 18:15 NW 10 10.00 Mostly Cloudy BKN090 48 32.4 55% 44 30.01 0.0
01 17:55 NW 10 10.00 Mostly Cloudy SCT050 BKN075 48.2 32.2 54% 44 30.01 0.0
01 17:35 NW 10 10.00 Overcast SCT050 BKN065 OVC080 47.5 32.5 56% 43 30.02 0.0
01 17:15 N 12 G 21 10.00 Overcast SCT048 BKN060 OVC080 48.2 31.6 53% 44 30.02 0.0
01 16:55 W 13 G 18 10.00 Overcast SCT043 SCT065 OVC080 50.4 31.1 48% 30 0.0
01 16:35 NW 9 10.00 Overcast SCT040 OVC080 50.5 31.8 49% 30 0.0
01 16:15 W 13 G 17 10.00 Overcast SCT040 BKN055 OVC080 49.5 32.4 52% 45 30.01 0.0
01 15:55 NW 10 10.00 Overcast SCT038 BKN055 OVC070 49.1 32.4 53% 45 30.01 0.0
Date Time (edt) Wind (mph) Vis. (mi.) Weather Sky Cond. Air Dwpt Max. Min. Relative Humidity Wind Chill (°F) Heat Index (°F) altimeter (in) sea level (mb) 1 hr 3 hr 6 hr
6 hour
Temperature (ºF) Pressure Precipitation (in)